Terminal Aerodrome Forecast
Issued by NWS

Home | Current Version | Previous Version | Text Only | Print | Product List | Glossary On
Versions: 1 2 3 4 5 6 7 8 9 10 11 12 13 14 15 16 17 18 19 20 21 22 23
000
FTUS46 KSEW 271700
TAFSEA
TAF
KSEA 271733Z 2718/2824 25004KT P6SM SKC
     FM280000 28007KT P6SM FEW250
     FM280300 32006KT P6SM SCT060 SCT250
     FM280600 24008KT P6SM SCT040
     FM281200 20006KT P6SM BKN025 OVC040
     FM281800 22007KT P6SM BKN030 OVC060
     FM282100 22008KT P6SM BKN040=

USA.gov is the U.S. government's official web portal to all federal, state and local government web resources and services.